createdAt,value
2023-05-22T00:01:12.149Z,99321.22
2023-05-22T00:03:40.750Z,99316.88
2023-05-22T00:06:10.091Z,99313.34
2023-05-22T00:08:37.311Z,99309.00
2023-05-22T00:11:04.481Z,99308.16
2023-05-22T00:13:31.703Z,99314.41
2023-05-22T00:15:58.704Z,99311.69
2023-05-22T00:18:27.028Z,99308.13
2023-05-22T00:20:54.230Z,99314.63
2023-05-22T00:23:22.010Z,99311.06
2023-05-22T00:25:50.666Z,99295.06
2023-05-22T00:28:17.791Z,99303.97
2023-05-22T00:30:45.944Z,99307.47
2023-05-22T00:33:12.947Z,99305.03
2023-05-22T00:35:39.932Z,99304.19
2023-05-22T00:38:08.789Z,99303.34
2023-05-22T00:40:36.141Z,99297.09
2023-05-22T00:43:08.219Z,99309.53
2023-05-22T00:45:35.309Z,99297.06
2023-05-22T00:48:02.388Z,99298.09
2023-05-22T00:50:29.529Z,99306.19
2023-05-22T00:52:56.724Z,99301.81
2023-05-22T00:55:23.736Z,99304.53
2023-05-22T00:57:51.868Z,99308.00
2023-05-22T01:00:19.477Z,99312.56
2023-05-22T01:02:46.614Z,99307.91
2023-05-22T01:05:17.992Z,99306.84
2023-05-22T01:07:46.344Z,99308.69
2023-05-22T01:10:13.454Z,99304.28
2023-05-22T01:13:01.865Z,99300.72
2023-05-22T01:15:56.600Z,99298.78
2023-05-22T01:18:41.717Z,99301.47
2023-05-22T01:21:30.061Z,99301.16
2023-05-22T01:24:47.069Z,99304.91
2023-05-22T01:27:54.200Z,99304.03
2023-05-22T01:30:47.237Z,99296.97
2023-05-22T01:33:17.595Z,99302.34
2023-05-22T01:35:51.717Z,99304.16
2023-05-22T01:38:19.760Z,99304.13
2023-05-22T01:40:47.639Z,99303.03
2023-05-22T01:43:16.445Z,99304.59
2023-05-22T01:45:43.729Z,99298.06
2023-05-22T01:48:12.027Z,99305.88
2023-05-22T01:50:40.821Z,99304.72
2023-05-22T01:53:26.488Z,99311.75
2023-05-22T01:56:06.378Z,99318.44
2023-05-22T01:58:50.504Z,99316.25
2023-05-22T02:01:22.508Z,99318.16
2023-05-22T02:04:10.026Z,99318.09
2023-05-22T02:07:01.068Z,99324.00
2023-05-22T02:09:33.190Z,99326.38
2023-05-22T02:12:01.127Z,99334.72
2023-05-22T02:14:30.197Z,99327.09
2023-05-22T02:16:58.022Z,99336.81
2023-05-22T02:19:27.016Z,99330.00
2023-05-22T02:21:54.211Z,99327.56
2023-05-22T02:24:23.547Z,99325.38
2023-05-22T02:26:51.911Z,99325.88
2023-05-22T02:29:19.157Z,99323.69
2023-05-22T02:31:46.381Z,99328.50
2023-05-22T02:34:13.476Z,99331.72
2023-05-22T02:36:41.278Z,99317.66
2023-05-22T02:39:08.810Z,99325.16
2023-05-22T02:41:35.805Z,99327.31
2023-05-22T02:44:03.187Z,99324.88
2023-05-22T02:46:30.391Z,99326.16
2023-05-22T02:48:57.427Z,99318.34
2023-05-22T02:51:24.431Z,99320.47
2023-05-22T02:53:52.127Z,99318.25
2023-05-22T02:56:20.894Z,99328.50
2023-05-22T02:58:48.281Z,99331.44
2023-05-22T03:01:15.474Z,99331.94
2023-05-22T03:03:43.630Z,99338.66
2023-05-22T03:06:10.960Z,99337.28
2023-05-22T03:08:41.531Z,99335.06
2023-05-22T03:11:09.221Z,99334.50
2023-05-22T03:13:36.605Z,99335.00
2023-05-22T03:16:03.927Z,99336.56
2023-05-22T03:18:31.222Z,99338.38
2023-05-22T03:20:58.246Z,99335.34
2023-05-22T03:23:25.397Z,99343.13
2023-05-22T03:25:53.131Z,99349.25
2023-05-22T03:28:21.299Z,99344.38
2023-05-22T03:30:49.426Z,99341.34
2023-05-22T03:33:21.467Z,99349.13
2023-05-22T03:35:50.090Z,99358.25
2023-05-22T03:38:17.097Z,99356.41
2023-05-22T03:40:44.298Z,99369.63
2023-05-22T03:43:11.349Z,99358.84
2023-05-22T03:45:39.288Z,99357.75
2023-05-22T03:48:06.448Z,99359.13
2023-05-22T03:50:33.593Z,99357.84
2023-05-22T03:53:01.236Z,99358.97
2023-05-22T03:55:30.741Z,99364.16
2023-05-22T03:57:57.780Z,99356.88
2023-05-22T04:00:26.786Z,99357.44
2023-05-22T04:02:54.708Z,99361.75
2023-05-22T04:05:24.413Z,99359.88
2023-05-22T04:07:51.537Z,99366.69
2023-05-22T04:10:20.922Z,99365.34
2023-05-22T04:12:47.921Z,99360.78
2023-05-22T04:15:14.988Z,99358.63
2023-05-22T04:17:42.132Z,99361.94
2023-05-22T04:20:09.825Z,99360.84
2023-05-22T04:22:37.135Z,99363.03
2023-05-22T04:25:04.419Z,99361.75
2023-05-22T04:27:33.166Z,99360.44
2023-05-22T04:30:03.598Z,99361.56
2023-05-22T04:32:31.832Z,99364.84
2023-05-22T04:35:00.398Z,99365.38
2023-05-22T04:37:28.708Z,99369.72
2023-05-22T04:39:58.200Z,99375.13
2023-05-22T04:42:25.319Z,99373.50
2023-05-22T04:44:57.965Z,99378.06
2023-05-22T04:47:24.991Z,99376.44
2023-05-22T04:49:52.036Z,99378.06
2023-05-22T04:52:19.092Z,99378.88
2023-05-22T04:55:06.695Z,99381.31
2023-05-22T04:57:52.779Z,99376.78
2023-05-22T05:00:38.907Z,99381.91
2023-05-22T05:03:08.161Z,99379.78
2023-05-22T05:05:35.619Z,99374.13
2023-05-22T05:08:02.960Z,99383.63
2023-05-22T05:10:29.998Z,99382.56
2023-05-22T05:12:57.051Z,99376.66
2023-05-22T05:15:24.097Z,99372.66
2023-05-22T05:17:51.461Z,99373.75
2023-05-22T05:20:18.737Z,99369.50
2023-05-22T05:22:46.326Z,99367.69
2023-05-22T05:25:14.611Z,99373.13
2023-05-22T05:27:41.729Z,99377.53
2023-05-22T05:30:10.659Z,99375.72
2023-05-22T05:32:48.029Z,99368.25
2023-05-22T05:35:31.578Z,99368.34
2023-05-22T05:38:04.389Z,99363.81
2023-05-22T05:40:33.690Z,99372.81
2023-05-22T05:43:00.791Z,99379.31
2023-05-22T05:45:29.588Z,99381.00
2023-05-22T05:47:57.222Z,99388.63
2023-05-22T05:50:24.452Z,99382.69
2023-05-22T05:52:51.556Z,99386.78
2023-05-22T05:55:19.833Z,99389.78
2023-05-22T05:57:48.257Z,99388.22
2023-05-22T06:00:22.580Z,99393.66
2023-05-22T06:02:51.426Z,99391.00
2023-05-22T06:05:37.117Z,99398.91
2023-05-22T06:08:26.870Z,99396.00
2023-05-22T06:10:54.051Z,99401.47
2023-05-22T06:13:33.227Z,99399.63
2023-05-22T06:16:04.096Z,99404.25
2023-05-22T06:18:32.945Z,99405.13
2023-05-22T06:21:00.580Z,99405.44
2023-05-22T06:23:27.561Z,99402.81
2023-05-22T06:25:55.869Z,99405.53
2023-05-22T06:28:23.588Z,99408.03
2023-05-22T06:30:51.036Z,99414.31
2023-05-22T06:33:21.145Z,99403.25
2023-05-22T06:35:48.412Z,99403.84
2023-05-22T06:38:16.493Z,99405.25
2023-05-22T06:40:44.281Z,99395.00
2023-05-22T06:43:18.621Z,99400.78
2023-05-22T06:45:51.193Z,99401.09
2023-05-22T06:48:24.276Z,99398.69
2023-05-22T06:51:01.174Z,99400.09
2023-05-22T06:53:28.917Z,99401.50
2023-05-22T06:55:57.047Z,99401.28
2023-05-22T06:58:34.896Z,99406.75
2023-05-22T07:01:05.099Z,99403.78
2023-05-22T07:03:39.761Z,99392.97
2023-05-22T07:06:33.585Z,99401.41
2023-05-22T07:09:02.824Z,99401.44
2023-05-22T07:11:29.905Z,99409.31
2023-05-22T07:13:56.920Z,99414.47
2023-05-22T07:16:25.607Z,99418.56
2023-05-22T07:18:53.052Z,99420.50
2023-05-22T07:21:23.640Z,99413.97
2023-05-22T07:23:52.648Z,99419.44
2023-05-22T07:26:19.727Z,99418.41
2023-05-22T07:28:55.148Z,99425.72
2023-05-22T07:31:22.222Z,99424.13
2023-05-22T07:33:49.901Z,99429.00
2023-05-22T07:36:18.908Z,99426.56
2023-05-22T07:38:46.565Z,99426.56
2023-05-22T07:41:13.958Z,99424.91
2023-05-22T07:43:40.997Z,99425.72
2023-05-22T07:46:11.474Z,99430.03
2023-05-22T07:48:48.126Z,99429.25
2023-05-22T07:51:16.736Z,99424.06
2023-05-22T07:53:45.099Z,99425.97
2023-05-22T07:56:12.104Z,99433.78
2023-05-22T07:58:40.064Z,99437.28
2023-05-22T08:01:09.383Z,99438.31
2023-05-22T08:03:36.832Z,99438.53
2023-05-22T08:06:04.459Z,99432.00
2023-05-22T08:08:32.695Z,99436.84
2023-05-22T08:11:04.288Z,99437.59
2023-05-22T08:13:32.206Z,99435.91
2023-05-22T08:16:00.459Z,99440.75
2023-05-22T08:18:29.261Z,99436.59
2023-05-22T08:20:56.861Z,99447.72
2023-05-22T08:23:24.066Z,99451.16
2023-05-22T08:25:51.143Z,99444.31
2023-05-22T08:28:18.327Z,99448.09
2023-05-22T08:30:45.554Z,99446.94
2023-05-22T08:33:12.634Z,99446.63
2023-05-22T08:35:39.752Z,99448.44
2023-05-22T08:38:07.265Z,99446.69
2023-05-22T08:40:39.383Z,99439.53
2023-05-22T08:43:06.910Z,99434.25
2023-05-22T08:45:34.664Z,99432.50
2023-05-22T08:48:06.334Z,99424.25
2023-05-22T08:50:40.656Z,99420.59
2023-05-22T08:53:11.219Z,99422.34
2023-05-22T08:55:38.599Z,99420.22
2023-05-22T08:58:06.057Z,99412.63
2023-05-22T09:00:33.586Z,99417.66
2023-05-22T09:03:00.751Z,99418.56
2023-05-22T09:05:27.891Z,99417.31
2023-05-22T09:08:02.648Z,99413.81
2023-05-22T09:10:36.000Z,99416.81
2023-05-22T09:13:11.529Z,99410.00
2023-05-22T09:15:38.593Z,99414.31
2023-05-22T09:18:06.488Z,99415.94
2023-05-22T09:20:38.955Z,99421.22
2023-05-22T09:23:17.541Z,99416.09
2023-05-22T09:25:45.491Z,99413.09
2023-05-22T09:28:13.241Z,99416.50
2023-05-22T09:30:42.469Z,99424.69
2023-05-22T09:33:14.124Z,99424.84
2023-05-22T09:35:42.094Z,99425.72
2023-05-22T09:38:10.308Z,99425.47
2023-05-22T09:40:43.121Z,99419.13
2023-05-22T09:43:11.182Z,99419.69
2023-05-22T09:45:39.242Z,99419.88
2023-05-22T09:48:08.593Z,99413.66
2023-05-22T09:50:36.960Z,99419.06
2023-05-22T09:53:04.975Z,99417.44
2023-05-22T09:55:33.617Z,99414.25
2023-05-22T09:58:05.294Z,99408.13
2023-05-22T10:00:35.125Z,99415.69
2023-05-22T10:03:17.968Z,99409.44
2023-05-22T10:05:52.386Z,99414.00
2023-05-22T10:08:32.729Z,99406.81
2023-05-22T10:11:00.021Z,99405.88
2023-05-22T10:13:27.842Z,99405.94
2023-05-22T10:15:55.015Z,99405.00
2023-05-22T10:18:23.087Z,99399.94
2023-05-22T10:20:50.307Z,99403.34
2023-05-22T10:23:18.630Z,99405.41
2023-05-22T10:25:46.515Z,99404.63
2023-05-22T10:28:24.295Z,99406.34
2023-05-22T10:31:07.869Z,99390.31
2023-05-22T10:34:02.770Z,99395.59
2023-05-22T10:37:17.289Z,99390.88
2023-05-22T10:40:14.633Z,99392.88
2023-05-22T10:42:43.247Z,99390.16
2023-05-22T10:45:11.267Z,99386.34
2023-05-22T10:47:38.501Z,99380.84
2023-05-22T10:50:11.798Z,99382.88
2023-05-22T10:52:39.935Z,99376.84
2023-05-22T10:55:11.271Z,99380.00
2023-05-22T10:57:39.861Z,99376.13
2023-05-22T11:00:19.215Z,99374.75
2023-05-22T11:02:49.984Z,99371.44
2023-05-22T11:05:36.486Z,99365.94
2023-05-22T11:08:26.305Z,99366.19
2023-05-22T11:10:59.090Z,99356.28
2023-05-22T11:13:29.272Z,99360.31
2023-05-22T11:15:57.682Z,99360.69
2023-05-22T11:18:29.013Z,99360.34
2023-05-22T11:20:56.092Z,99357.28
2023-05-22T11:23:25.741Z,99356.22
2023-05-22T11:25:53.060Z,99362.25
2023-05-22T11:28:20.422Z,99364.38
2023-05-22T11:30:47.866Z,99350.56
2023-05-22T11:33:15.170Z,99347.00
2023-05-22T11:35:44.497Z,99347.31
2023-05-22T11:38:12.442Z,99345.91
2023-05-22T11:40:39.825Z,99333.34
2023-05-22T11:43:07.167Z,99340.59
2023-05-22T11:45:37.704Z,99338.34
2023-05-22T11:48:04.767Z,99340.78
2023-05-22T11:50:41.566Z,99338.47
2023-05-22T11:53:09.785Z,99334.53
2023-05-22T11:55:36.784Z,99341.72
2023-05-22T11:58:03.818Z,99331.31
2023-05-22T12:00:31.668Z,99332.91
2023-05-22T12:02:59.134Z,99332.84
2023-05-22T12:05:26.353Z,99322.81
2023-05-22T12:07:53.426Z,99321.94
2023-05-22T12:10:20.545Z,99321.88
2023-05-22T12:12:48.216Z,99311.81
2023-05-22T12:15:20.417Z,99319.44
2023-05-22T12:17:47.599Z,99320.69
2023-05-22T12:20:14.703Z,99310.63
2023-05-22T12:22:43.425Z,99313.78
2023-05-22T12:25:16.414Z,99308.59
2023-05-22T12:27:45.438Z,99304.59
2023-05-22T12:30:14.488Z,99313.47
2023-05-22T12:32:47.089Z,99306.72
2023-05-22T12:35:18.360Z,99310.75
2023-05-22T12:37:52.447Z,99309.53
2023-05-22T12:40:19.744Z,99305.47
2023-05-22T12:42:48.908Z,99307.84
2023-05-22T12:45:17.693Z,99315.78
2023-05-22T12:47:44.834Z,99300.50
2023-05-22T12:50:12.060Z,99305.69
2023-05-22T12:52:39.109Z,99303.25
2023-05-22T12:55:07.136Z,99295.59
2023-05-22T12:57:34.093Z,99301.63
2023-05-22T13:00:01.071Z,99293.59
2023-05-22T13:02:28.102Z,99299.94
2023-05-22T13:04:55.224Z,99295.88
2023-05-22T13:07:22.589Z,99286.91
2023-05-22T13:09:49.717Z,99288.81
2023-05-22T13:12:16.889Z,99291.97
2023-05-22T13:14:43.994Z,99289.56
2023-05-22T13:17:11.653Z,99282.59
2023-05-22T13:19:38.766Z,99287.75
2023-05-22T13:22:07.484Z,99288.03
2023-05-22T13:24:34.512Z,99278.81
2023-05-22T13:27:01.802Z,99277.22
2023-05-22T13:29:28.826Z,99278.75
2023-05-22T13:31:55.962Z,99272.28
2023-05-22T13:34:23.160Z,99281.94
2023-05-22T13:36:50.592Z,99275.50
2023-05-22T13:39:17.625Z,99270.75
2023-05-22T13:41:45.104Z,99269.16
2023-05-22T13:44:12.186Z,99268.81
2023-05-22T13:46:40.879Z,99254.19
2023-05-22T13:49:08.226Z,99269.53
2023-05-22T13:51:35.611Z,99265.56
2023-05-22T13:54:03.949Z,99265.59
2023-05-22T13:56:31.268Z,99259.22
2023-05-22T13:58:58.316Z,99248.88
2023-05-22T14:01:25.409Z,99243.31
2023-05-22T14:03:52.516Z,99235.34
2023-05-22T14:06:19.581Z,99236.94
2023-05-22T14:08:46.609Z,99229.75
2023-05-22T14:11:13.621Z,99233.75
2023-05-22T14:13:40.670Z,99239.31
2023-05-22T14:16:07.652Z,99224.91
2023-05-22T14:18:34.759Z,99248.66
2023-05-22T14:21:04.009Z,99247.66
2023-05-22T14:23:31.817Z,99248.66
2023-05-22T14:25:58.850Z,99245.75
2023-05-22T14:28:26.013Z,99247.44
2023-05-22T14:30:53.119Z,99248.66
2023-05-22T14:33:20.136Z,99249.88
2023-05-22T14:35:48.334Z,99256.28
2023-05-22T14:38:15.485Z,99251.03
2023-05-22T14:40:42.774Z,99254.22
2023-05-22T14:43:09.768Z,99260.97
2023-05-22T14:45:36.786Z,99254.50
2023-05-22T14:48:04.637Z,99241.22
2023-05-22T14:50:31.675Z,99231.88
2023-05-22T14:52:58.909Z,99236.50
2023-05-22T14:55:28.026Z,99233.53
2023-05-22T14:57:55.676Z,99238.50
2023-05-22T15:00:22.756Z,99235.91
2023-05-22T15:02:49.791Z,99244.09
2023-05-22T15:05:16.931Z,99241.41
2023-05-22T15:07:46.054Z,99241.72
2023-05-22T15:10:14.613Z,99242.00
2023-05-22T15:12:41.643Z,99233.00
2023-05-22T15:15:09.162Z,99245.28
2023-05-22T15:17:36.286Z,99237.91
2023-05-22T15:20:05.367Z,99251.44
2023-05-22T15:22:32.389Z,99247.19
2023-05-22T15:25:09.559Z,99248.44
2023-05-22T15:27:38.862Z,99245.25
2023-05-22T15:30:09.458Z,99247.06
2023-05-22T15:32:37.487Z,99249.59
2023-05-22T15:35:06.134Z,99256.25
2023-05-22T15:37:36.488Z,99259.28
2023-05-22T15:40:07.124Z,99272.97
2023-05-22T15:42:34.239Z,99264.25
2023-05-22T15:45:01.334Z,99277.38
2023-05-22T15:47:29.771Z,99271.25
2023-05-22T15:49:56.796Z,99273.16
2023-05-22T15:52:24.532Z,99263.81
2023-05-22T15:54:51.673Z,99262.91
2023-05-22T15:57:18.863Z,99269.13
2023-05-22T15:59:47.289Z,99263.38
2023-05-22T16:02:14.721Z,99262.41
2023-05-22T16:04:41.832Z,99264.28
2023-05-22T16:07:08.882Z,99260.56
2023-05-22T16:09:36.304Z,99270.81
2023-05-22T16:12:04.087Z,99271.16
2023-05-22T16:14:31.542Z,99272.19
2023-05-22T16:16:58.652Z,99276.13
2023-05-22T16:19:28.055Z,99272.09
2023-05-22T16:21:55.421Z,99265.66
2023-05-22T16:24:22.484Z,99260.75
2023-05-22T16:26:49.488Z,99267.00
2023-05-22T16:29:22.226Z,99268.38
2023-05-22T16:31:49.306Z,99271.81
2023-05-22T16:34:16.377Z,99273.13
2023-05-22T16:36:43.886Z,99290.16
2023-05-22T16:39:11.182Z,99296.03
2023-05-22T16:41:38.215Z,99293.94
2023-05-22T16:44:05.474Z,99313.16
2023-05-22T16:46:32.549Z,99318.88
2023-05-22T16:48:59.567Z,99313.34
2023-05-22T16:51:26.543Z,99315.41
2023-05-22T16:53:53.567Z,99324.94
2023-05-22T16:56:21.012Z,99337.09
2023-05-22T16:58:48.061Z,99330.25
2023-05-22T17:01:15.332Z,99334.25
2023-05-22T17:03:42.504Z,99340.22
2023-05-22T17:06:09.638Z,99342.31
2023-05-22T17:08:36.678Z,99341.81
2023-05-22T17:11:07.760Z,99339.72
2023-05-22T17:13:34.802Z,99341.91
2023-05-22T17:16:01.824Z,99342.31
2023-05-22T17:18:28.842Z,99348.69
2023-05-22T17:20:55.878Z,99350.41
2023-05-22T17:23:22.958Z,99348.94
2023-05-22T17:25:50.645Z,99344.91
2023-05-22T17:28:17.836Z,99356.13
2023-05-22T17:30:46.002Z,99352.59
2023-05-22T17:33:13.898Z,99365.50
2023-05-22T17:35:41.696Z,99369.56
2023-05-22T17:38:08.807Z,99372.06
2023-05-22T17:40:44.676Z,99369.91
2023-05-22T17:43:14.276Z,99377.97
2023-05-22T17:45:41.819Z,99381.63
2023-05-22T17:48:09.153Z,99378.97
2023-05-22T17:50:36.295Z,99378.75
2023-05-22T17:53:03.383Z,99381.22
2023-05-22T17:55:30.550Z,99374.38
2023-05-22T17:57:58.641Z,99369.47
2023-05-22T18:00:25.725Z,99380.06
2023-05-22T18:02:52.964Z,99380.31
2023-05-22T18:05:20.132Z,99367.97
2023-05-22T18:07:48.182Z,99379.16
2023-05-22T18:10:15.324Z,99376.66
2023-05-22T18:12:45.016Z,99373.84
2023-05-22T18:15:12.289Z,99369.13
2023-05-22T18:17:41.121Z,99366.00
2023-05-22T18:20:11.865Z,99364.47
2023-05-22T18:22:39.887Z,99368.44
2023-05-22T18:25:07.843Z,99368.53
2023-05-22T18:27:36.219Z,99365.72
2023-05-22T18:30:05.230Z,99360.63
2023-05-22T18:32:34.798Z,99363.47
2023-05-22T18:35:03.704Z,99358.41
2023-05-22T18:37:30.872Z,99358.81
2023-05-22T18:39:58.053Z,99346.66
2023-05-22T18:42:25.256Z,99344.34
2023-05-22T18:44:52.278Z,99335.75
2023-05-22T18:47:19.466Z,99336.44
2023-05-22T18:49:46.495Z,99334.41
2023-05-22T18:52:13.553Z,99332.88
2023-05-22T18:54:40.638Z,99330.50
2023-05-22T18:57:07.868Z,99336.09
2023-05-22T18:59:35.021Z,99337.28
2023-05-22T19:02:02.103Z,99353.75
2023-05-22T19:04:29.137Z,99351.41
2023-05-22T19:06:56.398Z,99356.78
2023-05-22T19:09:24.085Z,99355.53
2023-05-22T19:11:51.240Z,99349.13
2023-05-22T19:14:18.424Z,99341.09
2023-05-22T19:16:45.603Z,99341.75
2023-05-22T19:19:12.815Z,99343.22
2023-05-22T19:21:39.850Z,99344.69
2023-05-22T19:24:07.415Z,99364.16
2023-05-22T19:26:34.465Z,99368.38
2023-05-22T19:29:01.514Z,99363.59
2023-05-22T19:31:29.641Z,99360.41
2023-05-22T19:33:56.933Z,99363.50
2023-05-22T19:36:23.916Z,99366.59
2023-05-22T19:38:53.234Z,99369.66
2023-05-22T19:41:20.550Z,99367.00
2023-05-22T19:43:47.577Z,99370.56
2023-05-22T19:46:14.717Z,99367.91
2023-05-22T19:48:41.750Z,99363.63
2023-05-22T19:51:08.813Z,99372.38
2023-05-22T19:53:36.483Z,99378.72
2023-05-22T19:56:03.561Z,99377.66
2023-05-22T19:58:30.685Z,99383.97
2023-05-22T20:00:57.755Z,99394.91
2023-05-22T20:03:26.187Z,99397.72
2023-05-22T20:05:53.807Z,99403.22
2023-05-22T20:08:25.804Z,99409.81
2023-05-22T20:10:53.013Z,99411.25
2023-05-22T20:13:20.132Z,99413.19
2023-05-22T20:15:47.839Z,99417.34
2023-05-22T20:18:15.076Z,99419.28
2023-05-22T20:20:42.204Z,99435.13
2023-05-22T20:23:09.252Z,99431.31
2023-05-22T20:25:37.464Z,99442.28
2023-05-22T20:28:04.980Z,99439.28
2023-05-22T20:30:32.427Z,99445.59
2023-05-22T20:32:59.475Z,99442.09
2023-05-22T20:35:26.849Z,99447.28
2023-05-22T20:37:53.884Z,99448.94
2023-05-22T20:40:21.722Z,99454.69
2023-05-22T20:42:49.103Z,99467.53
2023-05-22T20:45:16.449Z,99469.19
2023-05-22T20:47:43.891Z,99474.13
2023-05-22T20:50:11.522Z,99485.31
2023-05-22T20:52:38.555Z,99487.22
2023-05-22T20:55:06.726Z,99490.50
2023-05-22T20:57:34.520Z,99497.03
2023-05-22T21:00:01.977Z,99495.44
2023-05-22T21:02:30.961Z,99493.81
2023-05-22T21:04:57.975Z,99495.72
2023-05-22T21:07:24.971Z,99496.56
2023-05-22T21:09:51.988Z,99497.94
2023-05-22T21:12:18.997Z,99505.84
2023-05-22T21:14:46.979Z,99500.13
2023-05-22T21:17:14.031Z,99498.22
2023-05-22T21:19:41.097Z,99501.50
2023-05-22T21:22:08.619Z,99495.25
2023-05-22T21:24:35.726Z,99491.19
2023-05-22T21:27:02.847Z,99497.44
2023-05-22T21:29:29.836Z,99492.81
2023-05-22T21:31:56.863Z,99496.09
2023-05-22T21:34:24.033Z,99501.00
2023-05-22T21:36:51.075Z,99501.53
2023-05-22T21:39:18.140Z,99499.38
2023-05-22T21:41:45.722Z,99503.38
2023-05-22T21:44:13.451Z,99505.56
2023-05-22T21:46:40.520Z,99502.59
2023-05-22T21:49:09.526Z,99507.47
2023-05-22T21:51:37.515Z,99506.13
2023-05-22T21:54:04.639Z,99504.75
2023-05-22T21:56:31.620Z,99513.16
2023-05-22T21:58:58.619Z,99504.78
2023-05-22T22:01:25.792Z,99512.63
2023-05-22T22:03:53.079Z,99511.28
2023-05-22T22:06:20.089Z,99511.81
2023-05-22T22:08:50.854Z,99512.34
2023-05-22T22:11:17.949Z,99510.16
2023-05-22T22:13:44.952Z,99512.63
2023-05-22T22:16:12.048Z,99511.28
2023-05-22T22:18:40.587Z,99517.22
2023-05-22T22:21:07.592Z,99513.97
2023-05-22T22:23:34.601Z,99519.94
2023-05-22T22:26:01.696Z,99516.66
2023-05-22T22:28:29.030Z,99514.22
2023-05-22T22:30:56.090Z,99515.56
2023-05-22T22:33:23.102Z,99526.97
2023-05-22T22:35:51.271Z,99523.72
2023-05-22T22:38:18.592Z,99527.50
2023-05-22T22:40:45.654Z,99532.66
2023-05-22T22:43:12.688Z,99528.03
2023-05-22T22:45:40.232Z,99534.00
2023-05-22T22:48:07.686Z,99539.13
2023-05-22T22:50:34.810Z,99531.53
2023-05-22T22:53:01.869Z,99532.88
2023-05-22T22:55:29.076Z,99534.19
2023-05-22T22:57:56.319Z,99533.91
2023-05-22T23:00:23.622Z,99539.88
2023-05-22T23:02:51.056Z,99533.31
2023-05-22T23:05:21.210Z,99543.63
2023-05-22T23:07:48.613Z,99536.03
2023-05-22T23:10:15.850Z,99542.25
2023-05-22T23:12:42.960Z,99545.50
2023-05-22T23:15:12.993Z,99546.03
2023-05-22T23:17:41.258Z,99545.75
2023-05-22T23:20:08.993Z,99547.34
2023-05-22T23:22:36.042Z,99555.97
2023-05-22T23:25:03.381Z,99553.00
2023-05-22T23:27:30.464Z,99557.06
2023-05-22T23:29:58.123Z,99551.34
2023-05-22T23:32:25.210Z,99560.00
2023-05-22T23:34:52.238Z,99553.19
2023-05-22T23:37:19.230Z,99559.69
2023-05-22T23:39:46.208Z,99563.75
2023-05-22T23:42:13.231Z,99562.38
2023-05-22T23:44:40.225Z,99561.00
2023-05-22T23:47:08.037Z,99563.19
2023-05-22T23:49:35.270Z,99562.59
2023-05-22T23:52:02.257Z,99567.47
2023-05-22T23:54:29.248Z,99569.63
2023-05-22T23:56:56.252Z,99571.53
2023-05-22T23:59:23.251Z,99568.25
